Time;durP1;ratioP1;P1;durP2;ratioP2;P2;SDS_P1;SDS_P2;PMS_P1;PMS_P2;Temp;Humidity;BMP_temperature;BMP_pressure;BME280_temperature;BME280_humidity;BME280_pressure;Samples;Min_cycle;Max_cycle;Signal;HPM_P1;HPM_P2
2022/01/22 00:01:55;;;;;;;23.07;15.07;;;5.00;99.90;;;;;;4990048;28;20217;-61
2022/01/22 00:04:22;;;;;;;20.40;14.27;;;4.90;99.90;;;;;;4985914;28;20232;-62
2022/01/22 00:06:51;;;;;;;21.20;14.90;;;5.00;99.90;;;;;;5003011;28;20200;-61
2022/01/22 00:09:40;;;;;;;26.47;16.63;;;5.00;99.90;;;;;;5005391;28;20279;-62
2022/01/22 00:12:11;;;;;;;21.17;15.83;;;5.00;99.90;;;;;;4990600;28;20258;-61
2022/01/22 00:14:40;;;;;;;22.67;15.90;;;5.00;99.90;;;;;;4987686;28;20236;-62
2022/01/22 00:17:07;;;;;;;22.17;15.17;;;5.00;99.90;;;;;;4975133;28;20215;-63
2022/01/22 00:19:34;;;;;;;24.10;16.93;;;5.00;99.90;;;;;;4988847;28;20208;-60
2022/01/22 00:22:01;;;;;;;23.17;17.20;;;5.00;99.90;;;;;;4999724;28;20555;-61
2022/01/22 00:24:37;;;;;;;26.33;16.43;;;5.00;99.90;;;;;;5009051;28;20729;-62
2022/01/22 00:27:05;;;;;;;25.50;16.80;;;5.00;99.90;;;;;;4999953;28;20200;-61
2022/01/22 00:29:32;;;;;;;27.17;16.87;;;5.00;99.90;;;;;;4981835;28;20221;-61
2022/01/22 00:32:01;;;;;;;26.83;17.03;;;5.00;99.90;;;;;;4975145;28;20251;-62
2022/01/22 00:34:28;;;;;;;25.97;16.23;;;5.00;99.90;;;;;;4976763;28;20209;-61
2022/01/22 00:36:55;;;;;;;22.60;15.97;;;5.00;99.90;;;;;;4990152;28;20212;-61
2022/01/22 00:39:22;;;;;;;26.63;17.30;;;5.00;99.90;;;;;;4972696;28;20276;-61
2022/01/22 00:41:51;;;;;;;29.77;16.77;;;5.00;99.90;;;;;;4971714;28;20304;-62
2022/01/22 00:44:21;;;;;;;23.57;15.87;;;5.00;99.90;;;;;;4968779;28;20232;-60
2022/01/22 00:46:50;;;;;;;27.20;15.60;;;5.00;1.00;;;;;;4984514;28;20200;-61
2022/01/22 00:49:18;;;;;;;25.53;16.00;;;5.00;1.00;;;;;;4988468;28;20193;-61
2022/01/22 00:51:45;;;;;;;27.03;16.50;;;5.00;1.00;;;;;;4989294;28;20259;-62
2022/01/22 00:54:12;;;;;;;25.90;17.23;;;5.00;1.00;;;;;;4988649;28;20292;-61
2022/01/22 00:56:44;;;;;;;26.97;16.33;;;5.00;1.00;;;;;;4990031;28;20641;-61
2022/01/22 00:59:14;;;;;;;26.60;17.30;;;5.00;1.00;;;;;;4984634;28;20204;-61
2022/01/22 01:01:41;;;;;;;21.50;17.17;;;5.00;1.00;;;;;;4972359;28;20572;-62
2022/01/22 01:04:11;;;;;;;27.00;17.43;;;5.00;1.00;;;;;;4978449;28;20193;-62
2022/01/22 01:06:38;;;;;;;24.27;17.33;;;5.00;99.90;;;;;;4989014;28;20197;-62
2022/01/22 01:09:08;;;;;;;27.53;17.70;;;5.00;99.90;;;;;;4985972;28;20728;-61
2022/01/22 01:11:42;;;;;;;27.00;18.70;;;5.00;99.90;;;;;;4990205;28;20197;-61
2022/01/22 01:14:15;;;;;;;26.17;18.60;;;5.00;1.00;;;;;;4987125;28;20232;-61
2022/01/22 01:33:22;;;;;;;28.60;20.63;;;5.00;99.90;;;;;;4984657;28;20207;-60
2022/01/22 01:35:50;;;;;;;27.00;19.90;;;5.00;99.90;;;;;;4993287;28;20201;-60
2022/01/22 01:38:22;;;;;;;27.20;19.37;;;5.00;72.30;;;;;;4993295;28;20256;-60
2022/01/22 01:41:02;;;;;;;26.63;19.47;;;5.00;1.00;;;;;;4990411;28;20703;-61
2022/01/22 01:43:34;;;;;;;29.50;20.67;;;5.00;1.00;;;;;;4990149;28;20266;-61
2022/01/22 01:46:34;;;;;;;26.87;19.73;;;5.00;1.00;;;;;;4990946;28;20204;-63
2022/01/22 01:49:03;;;;;;;26.00;19.90;;;5.00;1.00;;;;;;4990719;28;20614;-62
2022/01/22 01:51:32;;;;;;;32.53;20.20;;;5.00;1.00;;;;;;4977924;28;20837;-61
2022/01/22 01:54:46;;;;;;;34.93;21.17;;;5.00;1.00;;;;;;4990657;28;20209;-62
2022/01/22 01:59:47;;;;;;;28.40;19.33;;;5.00;1.00;;;;;;4992245;28;20204;-62
2022/01/22 02:02:24;;;;;;;29.23;20.87;;;5.00;1.00;;;;;;4967309;28;20205;-61
2022/01/22 02:04:51;;;;;;;35.60;20.83;;;5.00;1.00;;;;;;4974743;28;20246;-61
2022/01/22 02:07:19;;;;;;;27.23;19.97;;;5.10;1.00;;;;;;4988158;28;20204;-61
2022/01/22 02:09:57;;;;;;;31.63;21.40;;;5.00;99.90;;;;;;4997582;28;20283;-60
2022/01/22 02:23:44;;;;;;;32.10;20.10;;;5.00;1.00;;;;;;4993315;28;20229;-61
2022/01/22 02:26:14;;;;;;;25.90;19.77;;;5.00;1.00;;;;;;4990870;28;20201;-62
2022/01/22 02:28:48;;;;;;;31.73;20.00;;;5.00;99.90;;;;;;4988343;28;20714;-61
2022/01/22 02:31:37;;;;;;;30.97;20.43;;;5.00;99.90;;;;;;4988107;28;20193;-61
2022/01/22 02:34:16;;;;;;;29.13;20.10;;;5.00;1.00;;;;;;4987297;28;20243;-60
2022/01/22 02:36:58;;;;;;;38.20;24.87;;;5.00;1.00;;;;;;4976573;28;20209;-61
2022/01/22 02:42:29;;;;;;;30.00;20.63;;;5.00;1.00;;;;;;4975637;28;20233;-61
2022/01/22 02:44:58;;;;;;;26.07;18.50;;;5.00;1.00;;;;;;4974792;28;20255;-60
2022/01/22 02:47:27;;;;;;;28.13;17.63;;;5.00;1.00;;;;;;4990029;28;20193;-61
2022/01/22 02:49:54;;;;;;;24.20;17.87;;;5.00;1.00;;;;;;4993367;28;20258;-62
2022/01/22 02:52:22;;;;;;;26.90;18.83;;;5.00;99.90;;;;;;4976055;28;20227;-61
2022/01/22 02:54:52;;;;;;;24.97;18.13;;;5.00;99.90;;;;;;4992808;28;20712;-61
2022/01/22 02:57:19;;;;;;;23.37;17.83;;;5.00;1.00;;;;;;4990892;28;20205;-60
2022/01/22 02:59:52;;;;;;;25.23;17.17;;;5.00;99.90;;;;;;5006326;28;20562;-61
2022/01/22 03:02:19;;;;;;;27.20;18.57;;;5.10;99.90;;;;;;4988560;28;20209;-61
2022/01/22 03:04:48;;;;;;;25.60;18.97;;;5.00;99.90;;;;;;4988614;28;20201;-61
2022/01/22 03:07:15;;;;;;;27.63;19.17;;;5.00;1.00;;;;;;4987607;28;20189;-61
2022/01/22 03:09:45;;;;;;;26.47;18.73;;;5.10;1.00;;;;;;4971797;28;20709;-61
2022/01/22 03:12:47;;;;;;;25.63;17.80;;;5.00;1.00;;;;;;5005895;28;20241;-62
2022/01/22 03:28:58;;;;;;;26.00;17.47;;;5.10;99.90;;;;;;4990559;28;20259;-60
2022/01/22 03:31:28;;;;;;;24.40;17.47;;;5.10;99.90;;;;;;4987082;28;20201;-60
2022/01/22 03:33:56;;;;;;;31.07;19.03;;;5.10;99.90;;;;;;4987898;28;20197;-61
2022/01/22 03:36:28;;;;;;;23.47;16.70;;;5.00;99.90;;;;;;4980148;28;20208;-61
2022/01/22 03:38:56;;;;;;;24.47;16.33;;;5.10;1.00;;;;;;4972202;28;20204;-61
2022/01/22 03:41:29;;;;;;;26.93;19.07;;;5.10;1.00;;;;;;4974920;28;20296;-61
2022/01/22 03:43:58;;;;;;;25.33;18.07;;;5.10;1.00;;;;;;4999417;28;20219;-61
2022/01/22 03:46:28;;;;;;;28.40;18.23;;;5.10;1.00;;;;;;4988873;28;20601;-62
2022/01/22 03:48:56;;;;;;;28.87;17.60;;;5.10;1.00;;;;;;5005287;28;20734;-61
2022/01/22 03:51:23;;;;;;;23.30;17.73;;;5.10;1.00;;;;;;4974197;28;20220;-61
2022/01/22 03:53:51;;;;;;;27.67;17.70;;;5.10;1.00;;;;;;4981827;28;20201;-62
2022/01/22 03:56:18;;;;;;;26.10;16.70;;;5.10;1.00;;;;;;4987842;28;20204;-61
2022/01/22 03:59:09;;;;;;;26.17;17.53;;;5.10;1.00;;;;;;4999003;28;20207;-62
2022/01/22 04:04:40;;;;;;;26.10;16.93;;;5.10;1.00;;;;;;5004808;28;20220;-62
2022/01/22 04:09:53;;;;;;;24.43;18.43;;;5.10;1.00;;;;;;4984717;28;20197;-61
2022/01/22 04:12:28;;;;;;;34.13;21.87;;;5.10;1.00;;;;;;4989830;28;20206;-62
2022/01/22 04:15:01;;;;;;;27.27;18.53;;;5.10;1.00;;;;;;4989102;28;20240;-61
2022/01/22 04:25:34;;;;;;;27.07;17.07;;;5.20;1.00;;;;;;4991023;28;20195;-61
2022/01/22 04:28:01;;;;;;;26.60;17.30;;;5.10;1.00;;;;;;4991378;28;20201;-61
2022/01/22 04:30:28;;;;;;;21.57;16.47;;;5.20;1.00;;;;;;4987577;28;23095;-61
2022/01/22 04:32:56;;;;;;;25.67;17.63;;;5.20;1.00;;;;;;4990454;28;20582;-61
2022/01/22 04:35:23;;;;;;;25.53;15.77;;;5.20;1.00;;;;;;4990457;28;20336;-61
2022/01/22 04:37:50;;;;;;;23.30;15.63;;;5.20;1.00;;;;;;4989484;28;20268;-60
2022/01/22 04:40:20;;;;;;;26.13;17.13;;;5.20;1.00;;;;;;4986988;28;20595;-62
2022/01/22 04:42:47;;;;;;;24.70;16.90;;;5.20;1.00;;;;;;5006902;28;20205;-61
2022/01/22 04:45:30;;;;;;;25.27;16.03;;;5.20;1.00;;;;;;4980292;28;20197;-61
2022/01/22 04:55:43;;;;;;;22.90;14.87;;;5.20;1.00;;;;;;4986435;28;20201;-62
2022/01/22 04:58:10;;;;;;;21.87;14.23;;;5.20;1.00;;;;;;4970828;28;20308;-61
2022/01/22 05:00:41;;;;;;;23.97;15.20;;;5.20;1.00;;;;;;4987476;28;20287;-61
2022/01/22 05:03:09;;;;;;;23.40;15.67;;;5.20;1.00;;;;;;5004920;28;20240;-61
2022/01/22 05:05:55;;;;;;;23.40;14.60;;;5.20;1.00;;;;;;5004310;28;21379;-61
2022/01/22 05:08:29;;;;;;;25.10;15.73;;;5.20;1.00;;;;;;4989350;28;20297;-60
2022/01/22 05:11:08;;;;;;;20.90;15.20;;;5.20;1.00;;;;;;4989502;28;20652;-61
2022/01/22 05:13:36;;;;;;;19.30;13.77;;;5.20;1.00;;;;;;4987613;28;20200;-61
2022/01/22 05:16:09;;;;;;;19.47;13.47;;;5.20;1.00;;;;;;4986207;28;20565;-61
2022/01/22 05:18:43;;;;;;;22.97;14.27;;;5.30;1.00;;;;;;4987136;28;20259;-62
2022/01/22 05:21:16;;;;;;;18.90;13.80;;;5.30;1.00;;;;;;4987995;28;20231;-62
2022/01/22 05:23:44;;;;;;;17.90;12.77;;;5.30;1.00;;;;;;4989343;28;20227;-61
2022/01/22 05:26:40;;;;;;;20.73;13.33;;;5.30;1.00;;;;;;4989374;28;20197;-62
2022/01/22 05:30:02;;;;;;;20.73;13.93;;;5.30;1.00;;;;;;4987190;28;20208;-62
2022/01/22 05:37:51;;;;;;;22.87;13.30;;;5.30;1.00;;;;;;4987817;28;20197;-60
2022/01/22 05:40:18;;;;;;;23.27;17.57;;;5.30;1.00;;;;;;4985031;28;20224;-61
2022/01/22 05:42:45;;;;;;;26.77;18.63;;;5.40;1.00;;;;;;4972634;28;20217;-61
2022/01/22 05:45:12;;;;;;;20.67;14.23;;;5.30;1.00;;;;;;4986333;28;20200;-61
2022/01/22 05:47:44;;;;;;;18.53;12.93;;;5.30;1.00;;;;;;4985321;28;20204;-61
2022/01/22 05:50:24;;;;;;;17.47;12.13;;;5.30;1.00;;;;;;4988615;28;21050;-61
2022/01/22 05:53:00;;;;;;;20.23;12.37;;;5.30;9.00;;;;;;4971557;28;20205;-61
2022/01/22 06:01:07;;;;;;;17.23;12.10;;;5.40;21.20;;;;;;4988815;28;20197;-61
2022/01/22 06:03:53;;;;;;;18.97;11.57;;;5.40;41.30;;;;;;5002898;28;20215;-61
2022/01/22 06:06:20;;;;;;;18.93;11.60;;;5.40;51.30;;;;;;4987848;28;20197;-61
2022/01/22 06:08:52;;;;;;;15.87;10.80;;;5.40;91.70;;;;;;4987881;28;20221;-61
2022/01/22 06:11:24;;;;;;;16.10;11.40;;;5.40;91.40;;;;;;4986393;28;20196;-61
2022/01/22 06:13:54;;;;;;;15.67;11.37;;;5.40;99.90;;;;;;4985058;28;20241;-61
2022/01/22 06:16:31;;;;;;;17.77;10.83;;;5.40;99.90;;;;;;4984589;28;20201;-61
2022/01/22 06:19:17;;;;;;;12.30;10.47;;;5.40;99.90;;;;;;4991189;28;20223;-61
2022/01/22 06:21:45;;;;;;;14.93;10.93;;;5.50;99.90;;;;;;4987700;28;20267;-62
2022/01/22 06:24:14;;;;;;;18.60;10.80;;;5.50;99.90;;;;;;4991120;28;20201;-60
2022/01/22 06:26:44;;;;;;;16.43;11.27;;;5.50;99.90;;;;;;4975719;28;20201;-60
2022/01/22 06:29:12;;;;;;;16.00;10.50;;;5.50;99.90;;;;;;5003129;28;20204;-61
2022/01/22 06:31:39;;;;;;;17.03;10.73;;;5.50;99.90;;;;;;4987401;28;20209;-61
2022/01/22 06:34:07;;;;;;;16.70;11.13;;;5.50;99.90;;;;;;4972654;28;20287;-60
2022/01/22 06:36:35;;;;;;;17.63;11.07;;;5.50;99.90;;;;;;4983746;28;20248;-61
2022/01/22 06:39:17;;;;;;;29.47;18.07;;;5.50;99.90;;;;;;4973563;28;20208;-60
2022/01/22 06:42:03;;;;;;;18.03;12.70;;;5.50;99.90;;;;;;5006886;28;20196;-61
2022/01/22 06:44:34;;;;;;;18.00;9.63;;;5.50;99.90;;;;;;5006864;28;20272;-60
2022/01/22 06:47:27;;;;;;;14.77;10.27;;;5.50;99.90;;;;;;4987414;28;20696;-60
2022/01/22 06:50:07;;;;;;;17.63;10.60;;;5.50;99.90;;;;;;4987344;28;20294;-61
2022/01/22 06:52:57;;;;;;;21.03;10.20;;;5.50;99.90;;;;;;5007773;28;20215;-61
2022/01/22 06:55:54;;;;;;;17.13;10.10;;;5.50;99.90;;;;;;4974676;28;20804;-60
2022/01/22 06:58:22;;;;;;;15.57;9.97;;;5.50;99.90;;;;;;4989388;28;20564;-60
2022/01/22 07:00:56;;;;;;;17.67;9.67;;;5.50;99.90;;;;;;5004216;28;20215;-60
2022/01/22 07:03:27;;;;;;;14.37;9.60;;;5.50;99.90;;;;;;4981295;28;20248;-61
2022/01/22 07:06:17;;;;;;;13.10;9.23;;;5.50;99.90;;;;;;4976367;28;20819;-60
2022/01/22 07:08:44;;;;;;;14.40;9.60;;;5.50;99.90;;;;;;4971598;28;20268;-59
2022/01/22 07:11:18;;;;;;;18.90;9.83;;;5.50;99.90;;;;;;4975164;28;20256;-61
2022/01/22 07:13:47;;;;;;;17.27;9.03;;;5.60;99.90;;;;;;4986937;28;20224;-61
2022/01/22 07:16:14;;;;;;;17.80;11.17;;;5.50;99.90;;;;;;4989254;28;20208;-60
2022/01/22 07:18:46;;;;;;;15.57;9.33;;;5.50;99.90;;;;;;4985559;28;20271;-61
2022/01/22 07:21:20;;;;;;;14.03;9.57;;;5.50;99.90;;;;;;4983087;28;20271;-61
2022/01/22 07:26:25;;;;;;;15.97;9.90;;;5.60;99.90;;;;;;4980587;28;20189;-61
2022/01/22 07:29:04;;;;;;;18.17;10.93;;;5.50;99.90;;;;;;5002653;28;20200;-60
2022/01/22 07:31:35;;;;;;;18.53;11.50;;;5.50;99.90;;;;;;5000003;28;20244;-61
2022/01/22 07:34:03;;;;;;;21.40;15.73;;;5.60;99.90;;;;;;4979008;28;20707;-61
2022/01/22 07:36:31;;;;;;;21.67;16.60;;;5.60;99.90;;;;;;4991116;28;20297;-60
2022/01/22 07:39:03;;;;;;;15.87;9.87;;;5.60;99.90;;;;;;4972386;28;20209;-62
2022/01/22 07:41:31;;;;;;;15.27;9.60;;;5.60;99.90;;;;;;4989801;28;20297;-60
2022/01/22 07:44:15;;;;;;;18.40;10.00;;;5.60;99.90;;;;;;5003241;28;20628;-61
2022/01/22 07:46:48;;;;;;;13.77;8.73;;;5.60;99.90;;;;;;4988378;28;20283;-60
2022/01/22 07:49:24;;;;;;;16.73;10.40;;;5.70;99.90;;;;;;4998528;28;20185;-61
2022/01/22 07:51:53;;;;;;;17.43;9.90;;;5.70;99.90;;;;;;4985146;28;20558;-62
2022/01/22 07:54:21;;;;;;;17.03;8.60;;;5.70;99.90;;;;;;4973075;28;20259;-62
2022/01/22 07:56:50;;;;;;;16.27;9.67;;;5.70;99.90;;;;;;5004114;28;20258;-61
2022/01/22 07:59:18;;;;;;;15.27;8.37;;;5.70;99.90;;;;;;5004970;28;20203;-61
2022/01/22 08:01:49;;;;;;;17.80;9.13;;;5.80;99.90;;;;;;4989408;28;20200;-61
2022/01/22 08:04:25;;;;;;;15.40;9.80;;;5.80;99.90;;;;;;4988505;28;20201;-60
2022/01/22 08:06:57;;;;;;;11.90;8.57;;;5.80;99.90;;;;;;4991032;28;20204;-61
2022/01/22 08:09:53;;;;;;;17.53;8.53;;;5.80;99.90;;;;;;4973356;28;20633;-61
2022/01/22 08:12:39;;;;;;;13.37;7.37;;;5.90;99.90;;;;;;4992456;28;20223;-61
2022/01/22 08:15:11;;;;;;;11.20;7.47;;;5.90;65.30;;;;;;4988518;28;20299;-60
2022/01/22 08:17:42;;;;;;;12.70;7.77;;;6.00;27.40;;;;;;4982780;28;20640;-60
2022/01/22 08:20:15;;;;;;;14.90;6.70;;;6.00;1.00;;;;;;4985558;28;20668;-62
2022/01/22 08:22:52;;;;;;;9.87;6.33;;;6.00;99.90;;;;;;4983728;28;20208;-60
2022/01/22 08:25:42;;;;;;;15.27;8.73;;;6.10;1.00;;;;;;5004010;28;20207;-61
2022/01/22 08:36:44;;;;;;;10.87;6.30;;;6.10;1.00;;;;;;4982324;28;20197;-60
2022/01/22 08:39:16;;;;;;;7.67;5.83;;;6.20;1.00;;;;;;4986078;28;20291;-61
2022/01/22 08:41:44;;;;;;;7.93;5.87;;;6.30;1.00;;;;;;4969752;28;20211;-61
2022/01/22 08:44:17;;;;;;;10.70;6.63;;;6.30;99.90;;;;;;4986444;28;20263;-60
2022/01/22 08:46:44;;;;;;;9.17;6.63;;;6.30;16.30;;;;;;4987084;28;20280;-60
2022/01/22 08:49:13;;;;;;;8.37;5.83;;;6.20;1.00;;;;;;4981962;28;20193;-61
2022/01/22 08:51:48;;;;;;;6.43;5.63;;;6.20;1.00;;;;;;4990709;28;20215;-60
2022/01/22 08:54:15;;;;;;;10.73;6.47;;;6.20;99.90;;;;;;4989682;28;20205;-61
2022/01/22 08:56:43;;;;;;;9.00;5.47;;;6.30;99.90;;;;;;4974161;28;20196;-61
2022/01/22 08:59:12;;;;;;;8.03;5.57;;;6.20;99.90;;;;;;4992346;28;20300;-60
2022/01/22 09:01:48;;;;;;;12.30;4.90;;;6.30;99.90;;;;;;4971433;28;20216;-60
2022/01/22 09:04:38;;;;;;;7.10;4.70;;;6.50;85.70;;;;;;4992596;28;20584;-60
2022/01/22 09:07:26;;;;;;;7.87;4.90;;;6.50;1.00;;;;;;5004285;28;20628;-60
2022/01/22 09:10:06;;;;;;;7.03;5.13;;;6.50;1.00;;;;;;4989622;28;20271;-60
2022/01/22 09:12:39;;;;;;;5.77;4.67;;;6.50;99.90;;;;;;4989856;28;20193;-60
2022/01/22 09:15:27;;;;;;;6.30;4.03;;;6.50;99.90;;;;;;4973512;28;20239;-60
2022/01/22 09:17:54;;;;;;;4.70;3.80;;;6.50;99.90;;;;;;4990414;28;20206;-61
2022/01/22 09:20:43;;;;;;;6.30;4.10;;;6.50;99.90;;;;;;4988992;28;20196;-60
2022/01/22 09:23:13;;;;;;;5.50;3.70;;;6.60;99.90;;;;;;4974857;28;20199;-61
2022/01/22 09:25:41;;;;;;;7.83;4.03;;;6.60;99.90;;;;;;4990756;28;20192;-60
2022/01/22 09:28:11;;;;;;;5.50;3.87;;;6.70;99.90;;;;;;4990784;28;20680;-61
2022/01/22 09:30:41;;;;;;;5.47;3.90;;;6.70;99.90;;;;;;4969360;28;20208;-60
2022/01/22 09:33:08;;;;;;;9.37;4.63;;;6.70;17.00;;;;;;4987351;28;20206;-61
2022/01/22 09:36:14;;;;;;;6.57;4.60;;;6.60;1.00;;;;;;4958775;28;20740;-60
2022/01/22 09:38:51;;;;;;;6.33;5.03;;;6.50;1.00;;;;;;4949286;28;20195;-60
2022/01/22 09:41:51;;;;;;;10.23;7.60;;;6.60;1.00;;;;;;4980990;28;20211;-60
2022/01/22 09:44:46;;;;;;;13.63;11.60;;;6.60;1.00;;;;;;5002999;28;20213;-61
2022/01/22 09:47:38;;;;;;;8.47;5.57;;;6.70;1.00;;;;;;4985759;28;20241;-61
2022/01/22 09:50:23;;;;;;;5.07;4.20;;;6.70;1.00;;;;;;4997665;28;20192;-61
2022/01/22 09:52:53;;;;;;;5.87;4.57;;;6.70;1.00;;;;;;4988072;28;20327;-60
2022/01/22 09:55:35;;;;;;;7.93;4.67;;;6.80;1.00;;;;;;4993715;28;20204;-60
2022/01/22 09:58:32;;;;;;;7.60;4.63;;;6.80;1.00;;;;;;4992551;28;20208;-60
2022/01/22 10:01:33;;;;;;;9.53;4.63;;;6.80;99.90;;;;;;5002764;28;20216;-61
2022/01/22 10:04:08;;;;;;;5.87;4.53;;;6.80;99.90;;;;;;4994476;28;20214;-61
2022/01/22 10:06:57;;;;;;;7.50;4.37;;;6.80;99.90;;;;;;5008598;28;20196;-60
2022/01/22 10:09:46;;;;;;;8.03;4.77;;;6.80;99.90;;;;;;5008133;28;20208;-61
2022/01/22 10:12:53;;;;;;;7.57;5.10;;;6.90;1.00;;;;;;4990294;28;20220;-61
2022/01/22 10:15:35;;;;;;;7.63;5.90;;;6.90;1.00;;;;;;5010901;28;20256;-62
2022/01/22 10:18:19;;;;;;;5.77;5.17;;;6.90;1.00;;;;;;4996187;28;20292;-61
2022/01/22 10:20:47;;;;;;;8.00;5.73;;;6.90;1.00;;;;;;4993575;28;20192;-62
2022/01/22 10:23:25;;;;;;;8.63;5.83;;;7.00;1.00;;;;;;4998054;28;20287;-61
2022/01/22 10:26:03;;;;;;;7.67;6.77;;;7.00;1.00;;;;;;4978888;28;20211;-61
2022/01/22 10:28:46;;;;;;;9.80;8.80;;;7.00;1.00;;;;;;5011802;28;20212;-62
2022/01/22 10:31:21;;;;;;;14.90;13.40;;;7.10;1.00;;;;;;4987626;28;20255;-61
2022/01/22 10:34:12;;;;;;;7.10;6.07;;;7.10;1.00;;;;;;4994209;28;20217;-61
2022/01/22 10:36:59;;;;;;;6.57;4.43;;;7.10;1.00;;;;;;4991837;28;20251;-61
2022/01/22 10:39:47;;;;;;;5.03;4.43;;;7.20;1.00;;;;;;4994855;28;20697;-61
2022/01/22 10:42:22;;;;;;;6.77;4.17;;;7.10;1.00;;;;;;5009822;28;20229;-61
2022/01/22 10:44:59;;;;;;;6.00;4.30;;;7.10;1.00;;;;;;5009522;28;20212;-61
2022/01/22 10:47:28;;;;;;;6.50;4.63;;;7.10;1.00;;;;;;5005142;28;20223;-61
2022/01/22 10:50:15;;;;;;;7.10;4.47;;;7.00;1.00;;;;;;5008455;28;20189;-60
2022/01/22 10:52:55;;;;;;;5.93;4.43;;;7.10;1.00;;;;;;4993063;28;20192;-60
2022/01/22 10:55:22;;;;;;;7.53;5.87;;;7.10;1.00;;;;;;5009135;28;20204;-61
2022/01/22 10:58:09;;;;;;;9.60;5.83;;;7.20;1.00;;;;;;4994447;28;20255;-62
2022/01/22 11:00:36;;;;;;;8.73;7.83;;;7.40;1.00;;;;;;4995019;28;20256;-61
2022/01/22 11:03:22;;;;;;;5.43;4.33;;;7.50;1.00;;;;;;4984956;28;20224;-60
2022/01/22 11:05:49;;;;;;;6.90;4.53;;;7.40;99.90;;;;;;4986835;28;20205;-61
2022/01/22 11:08:16;;;;;;;5.97;4.43;;;7.50;70.90;;;;;;4987334;28;20639;-61
2022/01/22 11:10:45;;;;;;;5.07;4.33;;;7.40;1.00;;;;;;5004043;28;20216;-61
2022/01/22 11:13:15;;;;;;;7.77;4.67;;;7.40;1.00;;;;;;4990961;28;20288;-61
2022/01/22 11:15:44;;;;;;;4.87;3.97;;;7.40;1.00;;;;;;4982726;28;20298;-61
2022/01/22 11:18:12;;;;;;;5.47;3.97;;;7.40;1.00;;;;;;4997434;28;20209;-61
2022/01/22 11:20:41;;;;;;;4.90;3.93;;;7.30;1.00;;;;;;5004415;28;20292;-61
2022/01/22 11:23:08;;;;;;;4.90;4.00;;;7.40;1.00;;;;;;4991911;28;20229;-61
2022/01/22 11:25:35;;;;;;;4.40;4.00;;;7.50;1.00;;;;;;4985403;28;20660;-62
2022/01/22 11:28:05;;;;;;;4.37;3.97;;;7.50;1.00;;;;;;4984648;28;20736;-62
2022/01/22 11:30:34;;;;;;;6.00;4.20;;;7.70;1.00;;;;;;5006319;28;20296;-63
2022/01/22 11:33:04;;;;;;;11.30;10.10;;;7.90;1.00;;;;;;4987767;28;20202;-62
2022/01/22 11:36:03;;;;;;;4.03;3.17;;;7.90;1.00;;;;;;4998716;28;20251;-62
2022/01/22 11:38:34;;;;;;;3.93;3.30;;;8.10;1.00;;;;;;4997767;28;20216;-62
2022/01/22 11:41:20;;;;;;;4.43;2.90;;;8.10;99.90;;;;;;5011548;28;20200;-62
2022/01/22 11:44:01;;;;;;;3.63;2.90;;;8.00;99.90;;;;;;4994319;28;20212;-61
2022/01/22 11:46:34;;;;;;;4.70;2.60;;;7.90;99.90;;;;;;4991781;28;20189;-62
2022/01/22 11:49:16;;;;;;;4.40;3.30;;;7.70;99.90;;;;;;5012302;28;20189;-62
2022/01/22 11:51:46;;;;;;;5.50;3.83;;;7.60;1.00;;;;;;4992672;28;20676;-61
2022/01/22 11:54:21;;;;;;;3.97;3.40;;;7.50;1.00;;;;;;4992988;28;20197;-61
2022/01/22 11:56:55;;;;;;;4.97;3.77;;;7.50;1.00;;;;;;5012939;28;20299;-60
2022/01/22 11:59:31;;;;;;;4.10;3.70;;;7.60;99.90;;;;;;4991817;28;20208;-61
2022/01/22 12:02:03;;;;;;;5.50;4.87;;;7.80;1.00;;;;;;4989959;28;20229;-61
2022/01/22 12:04:39;;;;;;;6.70;6.00;;;8.00;99.90;;;;;;5011027;28;20211;-61
2022/01/22 12:07:09;;;;;;;4.57;2.67;;;8.10;99.90;;;;;;4992671;28;20680;-62
2022/01/22 12:15:40;;;;;;;5.47;3.07;;;8.90;1.00;;;;;;5009183;28;20347;-62
2022/01/22 12:18:16;;;;;;;4.97;3.27;;;8.90;1.00;;;;;;4994459;28;20774;-62
2022/01/22 12:23:35;;;;;;;3.97;2.77;;;8.60;1.00;;;;;;5007369;28;20204;-62
2022/01/22 12:26:04;;;;;;;2.60;2.37;;;8.50;1.00;;;;;;4991607;28;20209;-62
2022/01/22 12:28:39;;;;;;;5.43;2.30;;;8.50;1.00;;;;;;4997425;28;20284;-62
2022/01/22 12:31:15;;;;;;;4.67;2.00;;;8.20;1.00;;;;;;4989776;28;20263;-61
2022/01/22 12:33:55;;;;;;;2.80;2.40;;;8.00;1.00;;;;;;4985668;28;20255;-61
2022/01/22 12:36:36;;;;;;;4.00;2.60;;;7.90;99.90;;;;;;4989252;28;20189;-61
2022/01/22 12:39:17;;;;;;;2.70;2.30;;;7.80;99.90;;;;;;4992240;28;20251;-61
2022/01/22 12:41:55;;;;;;;4.63;2.40;;;7.90;99.90;;;;;;5006887;28;20722;-62
2022/01/22 12:47:02;;;;;;;5.43;2.50;;;8.00;99.90;;;;;;5003033;28;20779;-61
2022/01/22 12:49:29;;;;;;;2.97;2.10;;;7.90;99.90;;;;;;4991926;28;20200;-61
2022/01/22 12:52:03;;;;;;;2.03;1.43;;;7.80;99.90;;;;;;5007387;28;20471;-61
2022/01/22 12:54:43;;;;;;;4.03;1.47;;;7.70;99.90;;;;;;4990994;28;20208;-60
2022/01/22 12:57:24;;;;;;;2.37;1.80;;;7.60;99.90;;;;;;4992594;28;20209;-61
2022/01/22 13:00:06;;;;;;;4.77;1.90;;;7.60;99.90;;;;;;5007693;28;20670;-62
2022/01/22 13:02:49;;;;;;;3.13;1.70;;;7.70;99.90;;;;;;5002134;28;20292;-61
2022/01/22 13:05:20;;;;;;;4.43;1.70;;;7.70;99.90;;;;;;5006715;28;20221;-62
2022/01/22 13:08:07;;;;;;;4.97;2.70;;;7.80;99.90;;;;;;5009691;28;20199;-62
2022/01/22 13:10:55;;;;;;;3.90;2.37;;;7.80;99.90;;;;;;5008161;28;20207;-61
2022/01/22 13:13:31;;;;;;;2.03;1.80;;;7.90;99.90;;;;;;5008538;28;20205;-62
2022/01/22 13:16:01;;;;;;;2.50;1.90;;;7.90;99.90;;;;;;4989271;28;20186;-62
2022/01/22 13:18:49;;;;;;;2.90;1.50;;;7.80;92.00;;;;;;4986510;28;20422;-62
2022/01/22 13:21:18;;;;;;;2.17;1.70;;;7.70;91.50;;;;;;4988039;28;20239;-62
2022/01/22 13:24:02;;;;;;;4.20;2.20;;;7.60;99.90;;;;;;4987039;28;20220;-62
2022/01/22 13:26:53;;;;;;;4.53;2.30;;;7.60;99.90;;;;;;4983820;28;20389;-62
2022/01/22 13:29:24;;;;;;;2.10;1.70;;;7.50;99.90;;;;;;4984534;28;20213;-62
2022/01/22 13:32:03;;;;;;;3.00;1.60;;;7.60;99.90;;;;;;4990826;28;20194;-62
2022/01/22 13:35:03;;;;;;;2.13;1.90;;;7.50;99.90;;;;;;4991197;28;20193;-61
2022/01/22 13:49:00;;;;;;;4.03;2.70;;;7.60;99.90;;;;;;4984669;28;22358;-62
2022/01/22 13:51:31;;;;;;;9.27;6.83;;;7.70;99.90;;;;;;4991714;28;20189;-62
2022/01/22 13:53:59;;;;;;;4.30;2.53;;;7.80;99.90;;;;;;4991920;28;20229;-62
2022/01/22 13:56:54;;;;;;;3.63;2.80;;;7.80;99.90;;;;;;4991647;28;20280;-62
2022/01/22 13:59:22;;;;;;;5.60;3.30;;;7.80;99.90;;;;;;4992162;28;20232;-62
2022/01/22 14:04:57;;;;;;;2.43;1.70;;;7.80;99.90;;;;;;4989646;28;20248;-62
2022/01/22 14:07:27;;;;;;;2.20;1.60;;;7.70;98.60;;;;;;4992226;28;20197;-62
2022/01/22 14:09:56;;;;;;;2.07;1.57;;;7.60;99.90;;;;;;4992606;28;20722;-62
2022/01/22 14:12:30;;;;;;;2.27;1.57;;;7.50;99.90;;;;;;4992780;28;20201;-61
2022/01/22 14:15:09;;;;;;;5.13;2.50;;;7.50;99.90;;;;;;4991900;28;20265;-62
2022/01/22 14:18:15;;;;;;;3.77;3.47;;;7.40;99.90;;;;;;4990028;28;20201;-61
2022/01/22 14:20:46;;;;;;;4.33;2.60;;;7.30;99.90;;;;;;4990887;28;20189;-61
2022/01/22 14:23:20;;;;;;;3.20;1.93;;;7.30;99.90;;;;;;4991362;28;20592;-61
2022/01/22 14:26:13;;;;;;;2.93;1.90;;;7.20;99.90;;;;;;4990584;28;20214;-62
2022/01/22 14:28:58;;;;;;;3.97;1.90;;;7.20;99.90;;;;;;4986658;28;20229;-61
2022/01/22 14:31:54;;;;;;;2.20;2.00;;;7.10;1.00;;;;;;4975786;28;20193;-61
2022/01/22 14:34:39;;;;;;;3.67;1.87;;;7.10;1.00;;;;;;4985136;28;20201;-60
2022/01/22 14:37:07;;;;;;;5.97;2.53;;;7.20;1.00;;;;;;5007769;28;20244;-61
2022/01/22 14:45:29;;;;;;;2.60;2.30;;;7.20;1.00;;;;;;4990126;28;20221;-61
2022/01/22 14:47:59;;;;;;;5.40;3.00;;;7.10;1.00;;;;;;4989127;28;20649;-62
2022/01/22 14:50:27;;;;;;;4.37;2.90;;;7.10;1.00;;;;;;4964868;28;20226;-61
2022/01/22 14:52:56;;;;;;;8.67;3.93;;;7.10;1.00;;;;;;4982653;28;20198;-61
2022/01/22 14:55:28;;;;;;;7.87;5.43;;;7.10;1.00;;;;;;4990232;28;20201;-61
2022/01/22 14:57:56;;;;;;;9.07;4.27;;;7.10;1.00;;;;;;4990850;28;20221;-62
2022/01/22 15:00:23;;;;;;;10.00;4.07;;;7.10;1.00;;;;;;4988029;28;20225;-61
2022/01/22 15:02:53;;;;;;;6.83;3.77;;;7.00;99.90;;;;;;4989593;28;20229;-62
2022/01/22 15:05:20;;;;;;;6.77;3.90;;;7.10;99.90;;;;;;4981633;28;20244;-61
2022/01/22 15:07:47;;;;;;;6.07;3.83;;;7.00;99.90;;;;;;4985475;28;20284;-62
2022/01/22 15:10:20;;;;;;;7.03;4.03;;;7.00;99.90;;;;;;4973499;28;20198;-61
2022/01/22 15:12:51;;;;;;;8.60;4.27;;;7.00;1.00;;;;;;4990575;28;20584;-61
2022/01/22 15:15:35;;;;;;;6.50;4.50;;;6.90;1.00;;;;;;4989590;28;20256;-62
2022/01/22 15:18:12;;;;;;;6.83;4.37;;;6.90;1.00;;;;;;4992047;28;20264;-61
2022/01/22 15:20:40;;;;;;;6.30;4.17;;;6.90;1.00;;;;;;4980110;28;20619;-61
2022/01/22 15:23:07;;;;;;;6.93;5.23;;;6.90;1.00;;;;;;4988102;28;20210;-62
2022/01/22 15:25:34;;;;;;;8.50;5.43;;;6.80;1.00;;;;;;4989776;28;20225;-61
2022/01/22 15:28:03;;;;;;;8.00;5.97;;;6.80;1.00;;;;;;5002521;28;21145;-61
2022/01/22 15:30:34;;;;;;;8.10;5.53;;;6.70;7.60;;;;;;4963905;28;20268;-62
2022/01/22 15:33:15;;;;;;;14.63;5.90;;;6.80;99.90;;;;;;4971623;28;20209;-60
2022/01/22 15:35:42;;;;;;;28.60;8.27;;;6.70;99.90;;;;;;4983420;28;20668;-60